createdAt,value
2022-10-13T00:01:43.388Z,6.67
2022-10-13T00:06:45.058Z,6.68
2022-10-13T00:11:47.210Z,6.69
2022-10-13T00:16:48.917Z,6.68
2022-10-13T00:21:50.559Z,6.67
2022-10-13T00:26:52.498Z,6.67
2022-10-13T00:31:54.150Z,6.69
2022-10-13T00:36:55.781Z,6.73
2022-10-13T00:41:58.463Z,6.73
2022-10-13T00:47:00.089Z,6.73
2022-10-13T00:52:01.695Z,6.71
2022-10-13T00:57:03.879Z,6.67
2022-10-13T01:02:05.529Z,6.63
2022-10-13T01:07:07.277Z,6.57
2022-10-13T01:12:30.128Z,6.49
2022-10-13T01:18:09.535Z,6.43
2022-10-13T01:23:38.443Z,6.38
2022-10-13T01:28:59.609Z,6.35
2022-10-13T01:34:10.098Z,6.30
2022-10-13T01:39:43.424Z,6.29
2022-10-13T01:44:48.352Z,6.27
2022-10-13T01:49:50.689Z,6.23
2022-10-13T01:54:52.539Z,6.22
2022-10-13T01:59:54.155Z,6.21
2022-10-13T02:05:19.177Z,6.20
2022-10-13T02:10:27.412Z,6.20
2022-10-13T02:15:31.412Z,6.21
2022-10-13T02:20:35.118Z,6.22
2022-10-13T02:25:36.793Z,6.28
2022-10-13T02:30:39.364Z,6.33
2022-10-13T02:35:41.600Z,6.40
2022-10-13T02:40:43.224Z,6.44
2022-10-13T02:45:44.849Z,6.46
2022-10-13T02:50:47.501Z,6.47
2022-10-13T02:55:49.134Z,6.48
2022-10-13T03:00:50.845Z,6.48
2022-10-13T03:05:52.490Z,6.49
2022-10-13T03:10:56.154Z,6.52
2022-10-13T03:15:57.774Z,6.60
2022-10-13T03:21:00.935Z,6.62
2022-10-13T03:26:02.753Z,6.70
2022-10-13T03:31:06.191Z,6.82
2022-10-13T03:36:08.091Z,6.91
2022-10-13T03:41:11.456Z,6.98
2022-10-13T03:46:14.051Z,7.06
2022-10-13T03:51:19.952Z,7.11
2022-10-13T03:56:25.502Z,7.18
2022-10-13T04:01:28.771Z,7.23
2022-10-13T04:06:31.285Z,7.33
2022-10-13T04:11:32.923Z,7.50
2022-10-13T04:16:34.876Z,7.59
2022-10-13T04:21:36.746Z,7.68
2022-10-13T04:26:38.360Z,7.74
2022-10-13T04:31:43.793Z,7.75
2022-10-13T04:36:45.523Z,7.79
2022-10-13T04:41:47.137Z,7.86
2022-10-13T04:46:48.781Z,7.96
2022-10-13T04:51:50.571Z,8.00
2022-10-13T04:56:52.190Z,8.09
2022-10-13T05:01:53.843Z,8.17
2022-10-13T05:07:18.916Z,8.26
2022-10-13T05:12:17.836Z,8.34
2022-10-13T05:17:19.701Z,8.41
2022-10-13T05:22:21.729Z,8.47
2022-10-13T05:27:24.597Z,8.48
2022-10-13T05:32:26.259Z,8.50
2022-10-13T05:37:27.897Z,8.51
2022-10-13T05:42:29.855Z,8.53
2022-10-13T05:47:31.498Z,8.55
2022-10-13T05:52:33.387Z,8.55
2022-10-13T05:57:41.102Z,8.57
2022-10-13T06:02:55.095Z,8.59
2022-10-13T06:07:56.729Z,8.62
2022-10-13T06:12:58.389Z,8.64
2022-10-13T06:18:00.067Z,8.65
2022-10-13T06:23:01.682Z,8.71
2022-10-13T06:28:03.423Z,8.75
2022-10-13T06:33:05.166Z,8.79
2022-10-13T06:38:09.202Z,8.86
2022-10-13T06:43:11.572Z,8.93
2022-10-13T06:48:16.138Z,9.02
2022-10-13T06:53:17.931Z,9.12
2022-10-13T06:58:19.554Z,9.27
2022-10-13T07:03:21.229Z,9.39
2022-10-13T07:08:23.071Z,9.51
2022-10-13T07:13:24.726Z,9.63
2022-10-13T07:18:27.101Z,9.75
2022-10-13T07:23:28.733Z,9.85
2022-10-13T07:28:30.435Z,9.94
2022-10-13T07:33:32.074Z,10.04
2022-10-13T07:38:33.732Z,10.16
2022-10-13T07:43:35.369Z,10.26
2022-10-13T07:48:39.567Z,10.37
2022-10-13T07:53:41.852Z,10.47
2022-10-13T07:58:45.232Z,10.57
2022-10-13T08:03:50.079Z,10.68
2022-10-13T08:08:53.300Z,10.74
2022-10-13T08:13:55.983Z,10.78
2022-10-13T08:18:58.358Z,10.86
2022-10-13T08:23:59.972Z,10.97
2022-10-13T08:29:21.771Z,11.10
2022-10-13T08:34:23.726Z,11.28
2022-10-13T08:39:25.414Z,11.49
2022-10-13T08:50:07.725Z,11.97
2022-10-13T08:55:28.643Z,12.12
2022-10-13T09:00:30.293Z,12.38
2022-10-13T09:05:37.720Z,12.60
2022-10-13T09:10:57.632Z,12.82
2022-10-13T09:16:00.800Z,13.00
2022-10-13T09:21:19.894Z,13.18
2022-10-13T09:26:24.218Z,13.37
2022-10-13T09:31:27.732Z,13.58
2022-10-13T09:36:30.663Z,13.75
2022-10-13T09:41:32.392Z,13.95
2022-10-13T09:46:51.762Z,14.10
2022-10-13T09:52:05.120Z,13.98
2022-10-13T09:57:25.396Z,14.08
2022-10-13T10:02:59.044Z,14.14
2022-10-13T10:08:06.240Z,14.09
2022-10-13T10:13:12.540Z,14.02
2022-10-13T10:18:20.389Z,14.12
2022-10-13T10:23:34.373Z,14.28
2022-10-13T10:28:48.220Z,14.45
2022-10-13T10:34:08.210Z,14.59
2022-10-13T10:39:23.327Z,14.61
2022-10-13T10:44:47.994Z,14.73
2022-10-13T10:49:50.152Z,14.91
2022-10-13T10:54:57.225Z,15.09
2022-10-13T11:00:04.942Z,15.26
2022-10-13T11:05:06.762Z,15.35
2022-10-13T11:10:16.315Z,15.50
2022-10-13T11:15:28.777Z,15.56
2022-10-13T11:20:36.286Z,15.60
2022-10-13T11:25:47.181Z,15.75
2022-10-13T11:30:52.714Z,15.90
2022-10-13T11:35:54.348Z,16.10
2022-10-13T11:41:12.228Z,16.23
2022-10-13T11:46:26.104Z,16.34
2022-10-13T11:51:49.314Z,16.56
2022-10-13T11:56:53.159Z,16.63
2022-10-13T12:01:59.034Z,16.83
2022-10-13T12:07:02.213Z,17.12
2022-10-13T12:12:15.128Z,17.60
2022-10-13T12:17:27.551Z,17.94
2022-10-13T12:22:29.682Z,18.24
2022-10-13T12:27:32.768Z,18.63
2022-10-13T12:32:35.901Z,19.09
2022-10-13T12:37:37.599Z,19.00
2022-10-13T12:42:39.264Z,18.80
2022-10-13T12:47:43.787Z,18.53
2022-10-13T12:52:45.417Z,18.74
2022-10-13T12:57:48.152Z,18.72
2022-10-13T13:03:00.626Z,18.45
2022-10-13T13:08:03.876Z,18.47
2022-10-13T13:13:15.209Z,18.64
2022-10-13T13:18:23.040Z,18.47
2022-10-13T13:23:24.739Z,18.31
2022-10-13T13:28:30.770Z,18.19
2022-10-13T13:33:33.224Z,18.20
2022-10-13T13:38:36.509Z,18.28
2022-10-13T13:43:38.687Z,18.28
2022-10-13T13:48:40.386Z,18.33
2022-10-13T13:53:42.087Z,18.06
2022-10-13T13:58:44.468Z,17.86
2022-10-13T14:03:46.080Z,17.76
2022-10-13T14:08:50.434Z,17.91
2022-10-13T14:13:52.104Z,17.78
2022-10-13T14:19:02.070Z,17.82
2022-10-13T14:24:04.239Z,17.68
2022-10-13T14:29:05.907Z,17.65
2022-10-13T14:34:07.612Z,17.57
2022-10-13T14:39:09.861Z,17.50
2022-10-13T14:44:13.472Z,17.41
2022-10-13T14:49:20.039Z,17.44
2022-10-13T14:54:23.164Z,17.42
2022-10-13T14:59:24.841Z,17.42
2022-10-13T15:04:26.454Z,17.39
2022-10-13T15:09:38.935Z,17.40
2022-10-13T15:14:50.835Z,17.45
2022-10-13T15:19:52.521Z,17.36
2022-10-13T15:24:54.190Z,17.27
2022-10-13T15:29:55.861Z,17.20
2022-10-13T15:34:57.541Z,17.14
2022-10-13T15:40:00.052Z,16.98
2022-10-13T15:45:09.985Z,16.94
2022-10-13T15:50:12.615Z,16.89
2022-10-13T15:55:14.351Z,16.78
2022-10-13T16:00:16.402Z,16.71
2022-10-13T16:05:18.271Z,16.65
2022-10-13T16:10:19.900Z,16.53
2022-10-13T16:15:21.538Z,16.39
2022-10-13T16:20:23.196Z,16.23
2022-10-13T16:25:24.823Z,16.09
2022-10-13T16:30:26.951Z,15.96
2022-10-13T16:35:28.598Z,15.84
2022-10-13T16:40:30.902Z,15.67
2022-10-13T16:45:55.106Z,15.56
2022-10-13T16:50:54.366Z,15.47
2022-10-13T16:55:57.784Z,15.36
2022-10-13T17:01:09.183Z,15.26
2022-10-13T17:06:11.423Z,15.15
2022-10-13T17:11:21.232Z,15.09
2022-10-13T17:16:22.969Z,14.98
2022-10-13T17:21:24.679Z,14.87
2022-10-13T17:26:26.338Z,14.79
2022-10-13T17:31:27.989Z,14.70
2022-10-13T17:36:31.606Z,14.62
2022-10-13T17:41:33.428Z,14.55
2022-10-13T17:46:37.918Z,14.51
2022-10-13T17:51:40.859Z,14.42
2022-10-13T17:56:42.484Z,14.36
2022-10-13T18:01:44.471Z,14.30
2022-10-13T18:06:46.198Z,14.24
2022-10-13T18:11:51.067Z,14.20
2022-10-13T18:16:53.231Z,14.15
2022-10-13T18:21:54.924Z,14.08
2022-10-13T18:26:56.542Z,14.01
2022-10-13T18:31:58.557Z,13.95
2022-10-13T18:37:00.194Z,13.87
2022-10-13T18:42:01.828Z,13.79
2022-10-13T18:47:08.945Z,13.72
2022-10-13T18:52:10.615Z,13.66
2022-10-13T18:57:14.351Z,13.60
2022-10-13T19:02:15.980Z,13.56
2022-10-13T19:07:17.653Z,13.52
2022-10-13T19:12:19.291Z,13.48
2022-10-13T19:17:21.111Z,13.46
2022-10-13T19:22:23.077Z,13.40
2022-10-13T19:27:24.802Z,13.38
2022-10-13T19:32:26.487Z,13.34
2022-10-13T19:37:28.115Z,13.32
2022-10-13T19:42:29.746Z,13.28
2022-10-13T19:47:32.716Z,13.26
2022-10-13T19:52:34.366Z,13.20
2022-10-13T19:57:36.020Z,13.16
2022-10-13T20:02:37.669Z,13.07
2022-10-13T20:07:39.343Z,13.07
2022-10-13T20:12:41.053Z,13.01
2022-10-13T20:17:42.683Z,12.97
2022-10-13T20:22:44.365Z,12.91
2022-10-13T20:27:46.658Z,12.84
2022-10-13T20:32:48.340Z,12.77
2022-10-13T20:37:50.002Z,12.74
2022-10-13T20:42:54.638Z,12.72
2022-10-13T20:47:56.284Z,12.68
2022-10-13T20:52:57.946Z,12.65
2022-10-13T20:57:59.559Z,12.61
2022-10-13T21:03:02.294Z,12.57
2022-10-13T21:08:04.115Z,12.54
2022-10-13T21:13:05.960Z,12.52
2022-10-13T21:18:07.846Z,12.48
2022-10-13T21:23:10.454Z,12.46
2022-10-13T21:28:12.096Z,12.46
2022-10-13T21:33:13.706Z,12.45
2022-10-13T21:38:15.355Z,12.42
2022-10-13T21:43:20.730Z,12.41
2022-10-13T21:48:22.384Z,12.37
2022-10-13T21:53:24.059Z,12.37
2022-10-13T21:58:25.679Z,12.36
2022-10-13T22:03:27.321Z,12.39
2022-10-13T22:08:38.344Z,12.40
2022-10-13T22:13:47.644Z,12.40
2022-10-13T22:18:53.191Z,12.40
2022-10-13T22:23:59.593Z,12.38
2022-10-13T22:29:02.246Z,12.34
2022-10-13T22:34:04.147Z,12.31
2022-10-13T22:39:05.870Z,12.30
2022-10-13T22:44:07.524Z,12.27
2022-10-13T22:49:09.270Z,12.26
2022-10-13T22:54:10.941Z,12.26
2022-10-13T22:59:13.696Z,12.26
2022-10-13T23:04:15.365Z,12.24
2022-10-13T23:09:17.030Z,12.25
2022-10-13T23:14:18.718Z,12.26
2022-10-13T23:19:20.457Z,12.25
2022-10-13T23:24:22.091Z,12.26
2022-10-13T23:29:23.803Z,12.26
2022-10-13T23:34:25.638Z,12.27
2022-10-13T23:39:27.393Z,12.24
2022-10-13T23:44:29.926Z,12.25
2022-10-13T23:49:32.099Z,12.24
2022-10-13T23:54:33.815Z,12.25
2022-10-13T23:59:35.475Z,12.26
